Time;durP1;ratioP1;P1;durP2;ratioP2;P2;SDS_P1;SDS_P2;PMS_P1;PMS_P2;Temp;Humidity;BMP_temperature;BMP_pressure;BME280_temperature;BME280_humidity;BME280_pressure;Samples;Min_cycle;Max_cycle;Signal;HPM_P1;HPM_P2
2022/11/09 00:01:19;;;;;;;3.72;1.92;;;15.00;76.30;;;;;;5038008;28;20029;-69
2022/11/09 00:03:45;;;;;;;5.15;2.40;;;15.00;76.30;;;;;;5034975;28;20025;-68
2022/11/09 00:06:10;;;;;;;4.68;2.30;;;15.10;76.20;;;;;;5042199;28;20021;-68
2022/11/09 00:08:37;;;;;;;5.90;2.25;;;15.10;76.10;;;;;;5034289;28;20491;-68
2022/11/09 00:11:08;;;;;;;5.68;2.00;;;15.10;76.10;;;;;;5040336;28;20507;-69
2022/11/09 00:13:39;;;;;;;6.83;2.00;;;15.00;76.00;;;;;;5030486;28;20124;-68
2022/11/09 00:16:06;;;;;;;4.05;1.90;;;15.10;76.10;;;;;;5029682;28;20132;-69
2022/11/09 00:18:33;;;;;;;5.35;2.42;;;15.10;76.10;;;;;;5031167;28;20108;-69
2022/11/09 00:21:05;;;;;;;6.43;2.15;;;15.00;76.10;;;;;;5041404;28;20037;-69
2022/11/09 00:23:30;;;;;;;4.78;2.22;;;15.10;76.20;;;;;;5047597;28;20025;-70
2022/11/09 00:26:03;;;;;;;4.22;2.00;;;15.10;76.10;;;;;;5038080;28;20383;-69
2022/11/09 00:28:29;;;;;;;5.47;2.20;;;15.10;76.10;;;;;;5030470;28;20034;-69
2022/11/09 00:31:02;;;;;;;3.72;2.00;;;15.10;76.10;;;;;;5038054;28;20537;-68
2022/11/09 00:33:28;;;;;;;4.90;1.75;;;15.10;76.10;;;;;;5030607;28;20034;-69
2022/11/09 00:35:54;;;;;;;6.28;2.25;;;15.10;76.00;;;;;;5029608;28;20036;-68
2022/11/09 00:38:20;;;;;;;5.93;2.38;;;15.10;76.10;;;;;;5043919;28;20048;-69
2022/11/09 00:40:46;;;;;;;5.85;2.13;;;15.10;76.10;;;;;;5044047;28;20040;-69
2022/11/09 00:43:11;;;;;;;3.83;1.67;;;15.10;76.10;;;;;;5046832;28;20112;-69
2022/11/09 00:45:37;;;;;;;4.72;2.40;;;15.10;76.10;;;;;;5036551;28;20030;-68
2022/11/09 00:48:03;;;;;;;5.70;1.90;;;15.10;76.00;;;;;;5031727;28;20112;-68
2022/11/09 00:50:28;;;;;;;4.95;2.13;;;15.10;76.00;;;;;;5043846;28;20496;-69
2022/11/09 00:52:54;;;;;;;5.45;2.40;;;15.10;76.00;;;;;;5045173;28;20109;-69
2022/11/09 00:55:20;;;;;;;4.75;2.00;;;15.10;75.80;;;;;;5042119;28;20033;-71
2022/11/09 00:57:49;;;;;;;3.97;1.80;;;15.10;75.90;;;;;;5032474;28;20033;-70
2022/11/09 01:00:17;;;;;;;7.15;2.55;;;15.10;75.90;;;;;;5042718;28;20060;-70
2022/11/09 01:02:42;;;;;;;5.88;2.10;;;15.10;75.80;;;;;;5037541;28;20471;-70
2022/11/09 01:05:08;;;;;;;3.50;1.70;;;15.00;75.80;;;;;;5048341;28;20045;-71
2022/11/09 01:07:35;;;;;;;3.92;1.60;;;15.10;75.80;;;;;;5039873;28;20071;-70
2022/11/09 01:10:00;;;;;;;4.72;1.88;;;15.10;75.80;;;;;;5028700;28;20087;-71
2022/11/09 01:12:26;;;;;;;5.50;2.30;;;15.10;75.80;;;;;;5050464;28;20029;-70
2022/11/09 01:14:52;;;;;;;4.07;1.80;;;15.10;75.80;;;;;;5052208;28;20070;-70
2022/11/09 01:17:17;;;;;;;5.35;2.20;;;15.10;75.80;;;;;;5035485;28;20083;-70
2022/11/09 01:19:43;;;;;;;4.57;1.90;;;15.00;75.80;;;;;;5044228;28;20021;-71
2022/11/09 01:22:08;;;;;;;5.15;1.83;;;15.10;75.90;;;;;;5051810;28;20515;-70
2022/11/09 01:24:34;;;;;;;4.85;1.90;;;15.10;75.80;;;;;;5052508;28;20017;-69
2022/11/09 01:26:59;;;;;;;4.90;2.10;;;15.10;75.90;;;;;;5037643;28;20025;-69
2022/11/09 01:29:25;;;;;;;6.43;2.38;;;15.10;76.00;;;;;;5032205;28;20028;-69
2022/11/09 01:31:53;;;;;;;5.38;2.30;;;15.10;76.10;;;;;;5042321;28;20408;-69
2022/11/09 01:34:19;;;;;;;5.50;2.30;;;15.00;76.30;;;;;;5051155;28;20025;-70
2022/11/09 01:36:44;;;;;;;6.95;2.60;;;15.00;76.80;;;;;;5042284;28;20040;-70
2022/11/09 01:39:10;;;;;;;5.93;2.17;;;14.90;77.00;;;;;;5045535;28;20036;-69
2022/11/09 01:41:36;;;;;;;3.85;1.90;;;14.90;77.00;;;;;;5045289;28;20531;-70
2022/11/09 01:44:13;;;;;;;3.95;1.70;;;14.90;76.90;;;;;;5039296;28;20506;-70
2022/11/09 01:46:53;;;;;;;7.05;1.92;;;14.90;76.80;;;;;;5045568;28;20075;-69
2022/11/09 01:49:44;;;;;;;4.47;1.55;;;14.80;76.70;;;;;;5050792;28;20017;-69
2022/11/09 01:52:19;;;;;;;4.43;1.50;;;14.80;76.80;;;;;;5048985;28;20025;-68
2022/11/09 01:54:48;;;;;;;3.25;1.60;;;14.80;76.90;;;;;;5047608;28;20028;-68
2022/11/09 01:57:37;;;;;;;3.60;1.63;;;14.80;76.90;;;;;;5041885;28;20041;-69
2022/11/09 02:00:07;;;;;;;3.75;1.55;;;14.80;76.90;;;;;;5049395;28;20040;-69
2022/11/09 02:02:35;;;;;;;5.32;1.50;;;14.80;77.00;;;;;;5040267;28;20112;-69
2022/11/09 02:05:05;;;;;;;3.85;1.83;;;14.80;77.00;;;;;;5042970;28;20044;-69
2022/11/09 02:07:31;;;;;;;3.95;1.70;;;14.80;77.00;;;;;;5037782;28;20056;-68
2022/11/09 02:10:27;;;;;;;5.35;1.83;;;14.80;77.20;;;;;;5034899;28;20036;-69
2022/11/09 02:12:53;;;;;;;4.95;2.00;;;14.70;77.30;;;;;;5041699;28;20152;-68
2022/11/09 02:15:21;;;;;;;5.10;2.08;;;14.70;77.50;;;;;;5045924;28;20048;-69
2022/11/09 02:17:51;;;;;;;4.57;1.90;;;14.70;77.80;;;;;;5042867;28;20029;-69
2022/11/09 02:20:17;;;;;;;3.47;2.03;;;14.70;77.90;;;;;;5045289;28;20035;-68
2022/11/09 02:22:43;;;;;;;6.07;2.38;;;14.70;77.90;;;;;;5045320;28;20029;-68
2022/11/09 02:25:10;;;;;;;3.80;1.80;;;14.70;78.00;;;;;;5047280;28;20047;-69
2022/11/09 02:27:36;;;;;;;4.07;2.03;;;14.70;78.10;;;;;;5041464;28;20112;-68
2022/11/09 02:30:03;;;;;;;5.00;2.35;;;14.70;78.40;;;;;;5046339;28;20025;-69
2022/11/09 02:32:29;;;;;;;5.15;2.53;;;14.70;78.70;;;;;;5032444;28;20484;-70
2022/11/09 02:34:55;;;;;;;5.03;2.08;;;14.60;78.90;;;;;;5049703;28;20078;-70
2022/11/09 02:37:38;;;;;;;4.32;2.20;;;14.60;79.10;;;;;;5040390;28;20036;-68
2022/11/09 02:40:09;;;;;;;4.25;2.05;;;14.60;79.10;;;;;;5031696;28;20038;-69
2022/11/09 02:42:35;;;;;;;3.43;1.83;;;14.60;79.00;;;;;;5030980;28;20017;-68
2022/11/09 02:45:00;;;;;;;5.60;2.03;;;14.60;78.90;;;;;;5047559;28;20052;-69
2022/11/09 02:47:26;;;;;;;5.68;2.20;;;14.70;78.90;;;;;;5038531;28;20102;-69
2022/11/09 02:49:51;;;;;;;6.10;2.10;;;14.70;78.90;;;;;;5031393;28;21038;-69
2022/11/09 02:52:17;;;;;;;3.75;2.00;;;14.70;78.90;;;;;;5049149;28;20036;-69
2022/11/09 02:54:43;;;;;;;5.35;2.38;;;14.70;78.80;;;;;;5038835;28;20021;-69
2022/11/09 02:57:09;;;;;;;4.43;2.30;;;14.70;78.80;;;;;;5039729;28;20033;-69
2022/11/09 02:59:34;;;;;;;3.95;1.77;;;14.70;78.90;;;;;;5039742;28;20104;-69
2022/11/09 03:02:00;;;;;;;4.88;2.00;;;14.70;78.80;;;;;;5033219;28;20091;-69
2022/11/09 03:04:26;;;;;;;4.25;2.20;;;14.70;78.70;;;;;;5046470;28;20036;-69
2022/11/09 03:06:51;;;;;;;4.07;1.83;;;14.70;78.70;;;;;;5050816;28;20029;-70
2022/11/09 03:09:18;;;;;;;5.20;2.00;;;14.70;78.60;;;;;;5045026;28;20059;-70
2022/11/09 03:11:43;;;;;;;5.07;2.00;;;14.70;78.60;;;;;;5030625;28;20037;-70
2022/11/09 03:14:09;;;;;;;3.92;1.92;;;14.70;78.60;;;;;;5031671;28;20026;-70
2022/11/09 03:16:35;;;;;;;5.72;1.90;;;14.70;78.40;;;;;;5050382;28;20049;-70
2022/11/09 03:19:01;;;;;;;5.18;1.98;;;14.70;78.60;;;;;;5050123;28;20064;-70
2022/11/09 03:21:27;;;;;;;5.75;1.98;;;14.70;78.60;;;;;;5047798;28;20057;-70
2022/11/09 03:23:53;;;;;;;5.63;2.00;;;14.60;78.60;;;;;;5040671;28;20025;-70
2022/11/09 03:26:20;;;;;;;4.75;1.77;;;14.60;78.60;;;;;;5046444;28;20520;-69
2022/11/09 03:28:45;;;;;;;3.58;1.90;;;14.60;78.60;;;;;;5048845;28;20108;-69
2022/11/09 03:31:11;;;;;;;4.82;1.90;;;14.60;78.60;;;;;;5034924;28;20738;-69
2022/11/09 03:33:37;;;;;;;3.88;2.10;;;14.60;78.60;;;;;;5029576;28;20037;-69
2022/11/09 03:36:03;;;;;;;4.95;2.08;;;14.60;78.60;;;;;;5033358;28;20034;-68
2022/11/09 03:38:28;;;;;;;6.60;2.13;;;14.60;78.60;;;;;;5033696;28;20025;-69
2022/11/09 03:40:54;;;;;;;6.38;2.08;;;14.50;78.70;;;;;;5037547;28;20036;-68
2022/11/09 03:43:19;;;;;;;3.92;1.90;;;14.50;78.70;;;;;;5044546;28;20025;-69
2022/11/09 03:45:46;;;;;;;4.75;1.80;;;14.50;78.60;;;;;;5031010;28;20104;-69
2022/11/09 03:48:11;;;;;;;3.22;1.77;;;14.50;78.60;;;;;;5046462;28;20033;-69
2022/11/09 03:50:39;;;;;;;4.45;1.80;;;14.50;78.60;;;;;;5036635;28;20509;-69
2022/11/09 03:53:06;;;;;;;4.53;1.80;;;14.50;78.60;;;;;;5033010;28;20396;-69
2022/11/09 03:55:32;;;;;;;6.68;2.10;;;14.50;78.60;;;;;;5040424;28;20464;-70
2022/11/09 03:57:57;;;;;;;4.90;1.95;;;14.50;78.60;;;;;;5036279;28;20104;-69
2022/11/09 04:00:25;;;;;;;3.92;1.88;;;14.50;78.70;;;;;;5047881;28;20032;-70
2022/11/09 04:02:50;;;;;;;4.40;1.60;;;14.40;78.60;;;;;;5037827;28;20127;-69
2022/11/09 04:05:16;;;;;;;4.97;1.90;;;14.40;78.60;;;;;;5029838;28;20652;-69
2022/11/09 04:07:54;;;;;;;7.28;2.50;;;14.40;78.60;;;;;;5031539;28;20037;-69
2022/11/09 04:10:21;;;;;;;5.35;1.90;;;14.30;78.60;;;;;;5045255;28;20064;-69
2022/11/09 04:12:46;;;;;;;5.20;1.77;;;14.30;78.70;;;;;;5045149;28;20021;-69
2022/11/09 04:15:12;;;;;;;5.57;2.33;;;14.30;78.70;;;;;;5043898;28;20033;-70
2022/11/09 04:17:38;;;;;;;6.55;2.00;;;14.30;78.70;;;;;;5044779;28;20082;-70
2022/11/09 04:20:06;;;;;;;6.07;1.95;;;14.20;78.70;;;;;;5039880;28;20095;-70
2022/11/09 04:22:31;;;;;;;3.85;1.80;;;14.20;78.70;;;;;;5037309;28;20029;-70
2022/11/09 04:24:57;;;;;;;8.40;2.20;;;14.20;78.60;;;;;;5046957;28;20036;-70
2022/11/09 04:27:22;;;;;;;6.22;2.03;;;14.20;78.70;;;;;;5037889;28;20033;-70
2022/11/09 04:29:48;;;;;;;5.80;1.70;;;14.10;78.60;;;;;;5029688;28;20022;-70
2022/11/09 04:32:13;;;;;;;4.47;1.80;;;14.10;78.70;;;;;;5035004;28;20033;-70
2022/11/09 04:34:40;;;;;;;8.02;2.17;;;14.00;78.70;;;;;;5032869;28;20022;-70
2022/11/09 04:37:06;;;;;;;6.10;1.83;;;14.00;78.70;;;;;;5045454;28;20029;-71
2022/11/09 04:39:31;;;;;;;6.40;2.20;;;14.00;78.70;;;;;;5034488;28;20029;-71
2022/11/09 04:41:57;;;;;;;4.20;1.75;;;14.10;78.80;;;;;;5046034;28;20680;-72
2022/11/09 04:44:23;;;;;;;6.93;1.92;;;14.00;78.60;;;;;;5042177;28;20167;-72
2022/11/09 04:46:48;;;;;;;4.05;1.60;;;14.00;78.60;;;;;;5036027;28;20036;-71
2022/11/09 04:49:14;;;;;;;7.20;2.10;;;14.00;78.60;;;;;;5048399;28;20044;-71
2022/11/09 04:51:39;;;;;;;7.38;2.25;;;14.00;78.60;;;;;;5047329;28;20040;-71
2022/11/09 04:54:05;;;;;;;6.72;2.28;;;14.00;78.60;;;;;;5043765;28;20032;-71
2022/11/09 04:56:30;;;;;;;4.65;1.80;;;14.00;78.60;;;;;;5051406;28;20037;-70
2022/11/09 04:58:56;;;;;;;6.38;1.60;;;14.00;78.50;;;;;;5043177;28;20026;-71
2022/11/09 05:01:22;;;;;;;4.95;1.80;;;14.00;78.50;;;;;;5038565;28;20040;-70
2022/11/09 05:03:47;;;;;;;5.20;1.80;;;14.10;78.50;;;;;;5043748;28;20020;-70
2022/11/09 05:06:31;;;;;;;5.82;1.77;;;14.10;78.40;;;;;;5051418;28;20387;-69
2022/11/09 05:08:58;;;;;;;6.43;1.70;;;14.10;78.50;;;;;;5051620;28;20392;-70
2022/11/09 05:11:24;;;;;;;5.78;2.05;;;14.00;78.40;;;;;;5041656;28;20025;-69
2022/11/09 05:13:53;;;;;;;4.78;1.90;;;14.00;78.50;;;;;;5040012;28;20107;-69
2022/11/09 05:16:19;;;;;;;7.10;2.60;;;14.00;78.50;;;;;;5052712;28;20120;-70
2022/11/09 05:18:45;;;;;;;6.97;1.88;;;14.00;78.60;;;;;;5046225;28;20025;-70
2022/11/09 05:21:11;;;;;;;8.38;1.98;;;14.00;78.60;;;;;;5049781;28;20542;-70
2022/11/09 05:26:21;;;;;;;5.57;2.00;;;14.00;78.80;;;;;;5032721;28;20048;-70
2022/11/09 05:28:46;;;;;;;6.10;1.90;;;14.00;78.70;;;;;;5033514;28;20017;-70
2022/11/09 05:31:12;;;;;;;6.65;1.98;;;14.00;78.80;;;;;;5031043;28;20044;-70
2022/11/09 05:33:38;;;;;;;6.55;1.88;;;14.00;78.80;;;;;;5033092;28;20026;-70
2022/11/09 05:36:04;;;;;;;6.22;2.03;;;13.90;78.80;;;;;;5049568;28;20040;-69
2022/11/09 05:38:30;;;;;;;6.55;2.00;;;13.90;78.90;;;;;;5047793;28;20029;-67
2022/11/09 05:40:55;;;;;;;6.03;1.90;;;13.90;79.00;;;;;;5043225;28;20021;-69
2022/11/09 05:43:21;;;;;;;7.68;2.30;;;13.90;79.10;;;;;;5038669;28;20060;-69
2022/11/09 05:45:47;;;;;;;6.18;2.13;;;13.90;79.10;;;;;;5047768;28;20041;-69
2022/11/09 05:48:14;;;;;;;5.07;1.83;;;13.90;79.20;;;;;;5046342;28;20111;-69
2022/11/09 05:50:41;;;;;;;7.07;2.10;;;13.80;79.20;;;;;;5041106;28;20026;-68
2022/11/09 05:53:07;;;;;;;9.18;2.15;;;13.80;79.40;;;;;;5045975;28;20031;-68
2022/11/09 05:55:33;;;;;;;5.13;1.92;;;13.80;79.40;;;;;;5045094;28;20033;-68
2022/11/09 05:57:59;;;;;;;5.65;1.77;;;13.70;79.50;;;;;;5045612;28;20075;-68
2022/11/09 06:00:25;;;;;;;5.97;1.83;;;13.70;79.50;;;;;;5038456;28;20028;-68
2022/11/09 06:02:51;;;;;;;5.93;2.05;;;13.70;79.60;;;;;;5037268;28;20447;-69
2022/11/09 06:05:17;;;;;;;6.85;2.40;;;13.60;79.70;;;;;;5046889;28;20029;-69
2022/11/09 06:07:42;;;;;;;6.07;1.90;;;13.60;79.80;;;;;;5042606;28;20045;-68
2022/11/09 06:10:08;;;;;;;6.38;1.90;;;13.60;79.80;;;;;;5046803;28;20481;-70
2022/11/09 06:12:34;;;;;;;7.75;1.90;;;13.60;79.80;;;;;;5032857;28;20034;-70
2022/11/09 06:14:59;;;;;;;4.53;1.65;;;13.60;79.90;;;;;;5044757;28;20027;-69
2022/11/09 06:17:25;;;;;;;8.40;2.33;;;13.60;79.90;;;;;;5041637;28;20055;-70
2022/11/09 06:19:50;;;;;;;6.80;2.00;;;13.50;80.00;;;;;;5045052;28;20029;-69
2022/11/09 06:22:16;;;;;;;6.07;2.40;;;13.50;80.10;;;;;;5045665;28;20049;-70
2022/11/09 06:24:42;;;;;;;8.38;2.75;;;13.50;80.30;;;;;;5049692;28;20025;-68
2022/11/09 06:27:07;;;;;;;7.55;2.10;;;13.50;80.40;;;;;;5044044;28;20113;-69
2022/11/09 06:29:33;;;;;;;7.25;2.05;;;13.40;80.50;;;;;;5048034;28;20028;-69
2022/11/09 06:31:58;;;;;;;6.93;1.98;;;13.40;80.60;;;;;;5039438;28;20580;-68
2022/11/09 06:34:24;;;;;;;6.70;1.92;;;13.40;80.80;;;;;;5048097;28;20021;-67
2022/11/09 06:36:50;;;;;;;6.70;1.98;;;13.40;80.70;;;;;;5043566;28;20694;-69
2022/11/09 06:39:15;;;;;;;7.68;2.58;;;13.40;80.80;;;;;;5044520;28;20446;-68
2022/11/09 06:41:41;;;;;;;5.05;1.83;;;13.40;80.80;;;;;;5036748;28;20032;-69
2022/11/09 06:44:06;;;;;;;6.60;1.95;;;13.40;80.80;;;;;;5036002;28;20021;-70
2022/11/09 06:46:33;;;;;;;7.32;2.30;;;13.30;80.80;;;;;;5043904;28;20052;-70
2022/11/09 06:48:58;;;;;;;5.32;1.55;;;13.30;80.90;;;;;;5038217;28;20545;-70
2022/11/09 06:51:24;;;;;;;8.50;2.50;;;13.30;81.10;;;;;;5034289;28;20037;-69
2022/11/09 06:53:50;;;;;;;7.82;2.10;;;13.30;81.10;;;;;;5045676;28;20051;-70
2022/11/09 06:56:16;;;;;;;9.20;1.80;;;13.30;81.10;;;;;;5043408;28;20029;-70
2022/11/09 06:58:41;;;;;;;10.55;2.10;;;13.30;81.10;;;;;;5045806;28;20021;-69
2022/11/09 07:01:10;;;;;;;8.88;2.05;;;13.30;81.00;;;;;;5042562;28;20483;-69
2022/11/09 07:03:36;;;;;;;8.10;2.30;;;13.30;81.10;;;;;;5044413;28;20029;-70
2022/11/09 07:06:06;;;;;;;9.18;3.15;;;13.30;81.10;;;;;;5044938;28;20028;-70
2022/11/09 07:08:33;;;;;;;7.63;2.90;;;13.30;81.20;;;;;;5045577;28;20033;-71
2022/11/09 07:11:05;;;;;;;9.52;2.53;;;13.30;81.30;;;;;;5039334;28;20022;-70
2022/11/09 07:13:31;;;;;;;7.57;2.22;;;13.20;81.40;;;;;;5038044;28;20028;-70
2022/11/09 07:15:56;;;;;;;6.93;2.22;;;13.20;81.40;;;;;;5038709;28;20025;-71
2022/11/09 07:18:22;;;;;;;7.93;3.10;;;13.20;81.30;;;;;;5046200;28;20044;-69
2022/11/09 07:20:48;;;;;;;7.57;2.30;;;13.30;81.40;;;;;;5042658;28;20082;-69
2022/11/09 07:23:13;;;;;;;7.00;2.05;;;13.30;81.30;;;;;;5046992;28;20025;-70
2022/11/09 07:25:39;;;;;;;5.45;1.80;;;13.30;81.30;;;;;;5043347;28;20047;-71
2022/11/09 07:28:07;;;;;;;7.30;2.15;;;13.30;81.30;;;;;;5029908;28;20037;-70
2022/11/09 07:30:34;;;;;;;7.82;2.30;;;13.30;81.20;;;;;;5045423;28;20078;-70
2022/11/09 07:32:59;;;;;;;6.13;2.38;;;13.40;81.30;;;;;;5043002;28;20025;-70
2022/11/09 07:35:26;;;;;;;7.60;1.95;;;13.40;81.30;;;;;;5045949;28;20033;-70
2022/11/09 07:37:52;;;;;;;14.43;2.47;;;13.40;81.30;;;;;;5049841;28;20025;-70
2022/11/09 07:40:18;;;;;;;9.90;2.42;;;13.40;81.30;;;;;;5040100;28;20024;-69
2022/11/09 07:42:44;;;;;;;11.70;2.50;;;13.40;81.20;;;;;;5045235;28;20566;-71
2022/11/09 07:45:10;;;;;;;7.22;2.20;;;13.40;81.20;;;;;;5036738;28;20108;-71
2022/11/09 07:47:36;;;;;;;6.30;2.10;;;13.40;81.20;;;;;;5040562;28;20480;-70
2022/11/09 07:50:02;;;;;;;8.13;2.30;;;13.50;81.20;;;;;;5039768;28;20025;-71
2022/11/09 07:52:28;;;;;;;7.85;2.22;;;13.50;81.10;;;;;;5043882;28;20332;-70
2022/11/09 07:54:54;;;;;;;10.98;3.00;;;13.50;81.20;;;;;;5037255;28;20032;-71
2022/11/09 07:57:19;;;;;;;8.27;2.35;;;13.50;81.80;;;;;;5041175;28;20037;-70
2022/11/09 07:59:45;;;;;;;8.68;2.40;;;13.50;81.20;;;;;;5036046;28;20025;-70
2022/11/09 08:02:10;;;;;;;7.13;2.20;;;13.60;81.20;;;;;;5039338;28;20036;-70
2022/11/09 08:04:36;;;;;;;10.68;2.55;;;13.50;81.10;;;;;;5043875;28;20446;-70
2022/11/09 08:07:02;;;;;;;6.25;2.17;;;13.60;81.20;;;;;;5038970;28;20025;-70
2022/11/09 08:09:27;;;;;;;8.45;2.50;;;13.60;81.20;;;;;;5039387;28;20029;-70
2022/11/09 08:11:53;;;;;;;10.25;2.70;;;13.60;81.20;;;;;;5039443;28;20097;-69
2022/11/09 08:14:18;;;;;;;8.38;2.38;;;13.70;81.10;;;;;;5045310;28;20021;-70
2022/11/09 08:16:44;;;;;;;9.13;2.40;;;13.70;81.10;;;;;;5032638;28;20389;-70
2022/11/09 08:19:09;;;;;;;6.85;2.30;;;13.70;80.90;;;;;;5036714;28;20061;-71
2022/11/09 08:21:38;;;;;;;7.28;2.08;;;13.70;80.90;;;;;;5043951;28;20048;-71
2022/11/09 08:24:04;;;;;;;6.13;2.20;;;13.70;80.70;;;;;;5045116;28;20021;-70
2022/11/09 08:26:30;;;;;;;7.22;2.10;;;13.80;80.70;;;;;;5047269;28;20534;-69
2022/11/09 08:28:56;;;;;;;6.65;2.50;;;13.80;80.70;;;;;;5039193;28;20032;-69
2022/11/09 08:31:22;;;;;;;7.35;2.30;;;13.90;80.60;;;;;;5046867;28;20025;-69
2022/11/09 08:33:48;;;;;;;7.28;2.65;;;13.90;80.50;;;;;;5045574;28;20033;-71
2022/11/09 08:36:15;;;;;;;8.65;2.80;;;13.90;80.50;;;;;;5041825;28;20031;-72
2022/11/09 08:38:42;;;;;;;7.07;2.85;;;13.90;80.50;;;;;;5036837;28;20052;-70
2022/11/09 08:41:08;;;;;;;8.40;2.78;;;13.90;80.50;;;;;;5046931;28;20048;-70
2022/11/09 08:43:34;;;;;;;13.10;3.30;;;13.90;80.40;;;;;;5043314;28;20049;-71
2022/11/09 08:45:59;;;;;;;8.77;2.95;;;13.90;80.30;;;;;;5043998;28;20064;-70
2022/11/09 08:48:25;;;;;;;8.13;2.33;;;13.90;80.20;;;;;;5042363;28;20022;-70
2022/11/09 08:50:52;;;;;;;8.70;2.40;;;14.00;80.20;;;;;;5033802;28;20040;-71
2022/11/09 08:53:18;;;;;;;7.45;2.53;;;14.00;80.10;;;;;;5047577;28;20456;-70
2022/11/09 08:55:43;;;;;;;11.40;3.05;;;14.00;80.00;;;;;;5036887;28;20156;-70
2022/11/09 08:58:09;;;;;;;7.07;1.88;;;14.10;79.80;;;;;;5041990;28;20082;-70
2022/11/09 09:00:35;;;;;;;8.85;2.50;;;14.00;79.70;;;;;;5041020;28;20079;-71
2022/11/09 09:03:05;;;;;;;8.57;2.53;;;14.10;79.70;;;;;;5041705;28;20049;-71
2022/11/09 09:05:31;;;;;;;6.47;1.80;;;14.10;79.60;;;;;;5039017;28;20053;-70
2022/11/09 09:08:01;;;;;;;8.68;2.35;;;14.20;79.50;;;;;;5047286;28;20017;-69
2022/11/09 09:10:27;;;;;;;9.30;2.30;;;14.30;79.20;;;;;;5042908;28;20649;-69
2022/11/09 09:12:54;;;;;;;11.98;2.88;;;14.40;78.90;;;;;;5046525;28;20021;-69
2022/11/09 09:15:19;;;;;;;7.05;2.50;;;14.40;78.40;;;;;;5041911;28;20021;-69
2022/11/09 09:17:45;;;;;;;9.80;2.35;;;14.30;78.20;;;;;;5045880;28;20033;-70
2022/11/09 09:20:11;;;;;;;8.80;2.80;;;14.40;78.10;;;;;;5039229;28;20503;-71
2022/11/09 09:22:37;;;;;;;8.70;2.13;;;14.40;78.00;;;;;;5037447;28;20476;-70
2022/11/09 09:25:03;;;;;;;8.52;2.40;;;14.40;78.00;;;;;;5043904;28;20024;-70
2022/11/09 09:27:29;;;;;;;11.20;2.70;;;14.40;77.80;;;;;;5043067;28;20029;-70
2022/11/09 09:29:55;;;;;;;8.27;2.25;;;14.40;77.80;;;;;;5038921;28;20025;-71
2022/11/09 09:32:21;;;;;;;8.05;2.30;;;14.40;77.60;;;;;;5043673;28;20068;-70
2022/11/09 09:34:46;;;;;;;8.60;2.17;;;14.40;77.50;;;;;;5049962;28;20077;-69
2022/11/09 09:37:12;;;;;;;7.97;2.60;;;14.60;77.50;;;;;;5048696;28;20032;-69
2022/11/09 09:39:37;;;;;;;8.52;2.78;;;14.60;77.30;;;;;;5044880;28;20046;-70
2022/11/09 09:42:36;;;;;;;8.75;2.30;;;14.60;77.00;;;;;;5042057;28;20032;-70
2022/11/09 09:45:11;;;;;;;7.68;2.20;;;14.80;77.00;;;;;;5046679;28;20036;-71
2022/11/09 09:47:53;;;;;;;6.25;1.90;;;14.80;76.80;;;;;;5046115;28;20032;-70
2022/11/09 09:50:21;;;;;;;;;;;14.90;76.70;;;;;;5037448;28;20052;-70
2022/11/09 09:52:51;;;;;;;8.35;2.58;;;14.90;76.30;;;;;;5042227;28;20039;-71
2022/11/09 09:55:28;;;;;;;6.65;2.42;;;14.90;76.00;;;;;;5039610;28;20020;-70
2022/11/09 09:57:58;;;;;;;9.70;2.60;;;14.90;75.90;;;;;;5036448;28;20456;-71
2022/11/09 10:00:25;;;;;;;11.73;2.45;;;14.90;75.30;;;;;;5040027;28;20025;-70
2022/11/09 10:02:52;;;;;;;11.60;2.72;;;14.90;75.10;;;;;;5055618;28;20025;-71
2022/11/09 10:05:19;;;;;;;8.98;2.63;;;14.90;75.10;;;;;;5040455;28;20017;-71
2022/11/09 10:08:09;;;;;;;6.53;1.85;;;15.00;75.30;;;;;;5044448;28;20495;-71
2022/11/09 10:10:46;;;;;;;5.90;2.28;;;15.00;75.10;;;;;;5040917;28;20057;-70
2022/11/09 10:13:21;;;;;;;7.93;2.22;;;15.00;75.00;;;;;;5043923;28;20047;-69
2022/11/09 10:16:22;;;;;;;4.78;2.00;;;15.00;75.00;;;;;;5046309;28;20048;-70
2022/11/09 10:18:50;;;;;;;6.05;1.98;;;15.10;75.00;;;;;;5039629;28;20038;-69
2022/11/09 10:21:40;;;;;;;8.27;2.13;;;15.20;74.70;;;;;;5047950;28;20041;-69
2022/11/09 10:24:15;;;;;;;9.63;2.10;;;15.20;74.60;;;;;;5036685;28;20129;-70
2022/11/09 10:26:54;;;;;;;6.03;2.08;;;15.30;74.50;;;;;;5046242;28;20029;-70
2022/11/09 10:29:25;;;;;;;8.05;2.30;;;15.30;74.40;;;;;;5042949;28;20029;-70
2022/11/09 10:31:53;;;;;;;9.35;2.20;;;15.40;74.40;;;;;;5040070;28;20028;-70
2022/11/09 10:34:28;;;;;;;7.47;2.10;;;15.40;74.10;;;;;;5046996;28;20021;-70
2022/11/09 10:37:14;;;;;;;7.57;1.73;;;15.40;73.90;;;;;;5047777;28;20028;-70
2022/11/09 10:40:02;;;;;;;7.95;2.25;;;15.40;73.90;;;;;;5044269;28;20033;-69
2022/11/09 10:42:28;;;;;;;7.03;2.40;;;15.40;73.80;;;;;;5042236;28;20036;-70
2022/11/09 10:44:54;;;;;;;8.43;2.10;;;15.40;73.50;;;;;;5047864;28;20017;-69
2022/11/09 10:47:21;;;;;;;8.63;2.30;;;15.40;73.50;;;;;;5038034;28;20029;-70
2022/11/09 10:50:14;;;;;;;6.90;1.95;;;15.40;73.10;;;;;;5044658;28;20068;-69
2022/11/09 10:52:39;;;;;;;8.85;2.25;;;15.40;72.50;;;;;;5041505;28;20033;-70
2022/11/09 10:55:35;;;;;;;5.80;1.70;;;15.30;72.40;;;;;;5041132;28;20021;-69
2022/11/09 10:58:18;;;;;;;7.90;2.00;;;15.30;72.60;;;;;;5037224;28;20123;-70
2022/11/09 11:01:11;;;;;;;7.93;2.28;;;15.30;72.80;;;;;;5039261;28;20026;-71
2022/11/09 11:03:38;;;;;;;5.20;1.50;;;15.40;72.90;;;;;;5034392;28;20066;-70
2022/11/09 11:06:11;;;;;;;6.43;2.00;;;15.40;72.80;;;;;;5039326;28;20020;-71
2022/11/09 11:08:42;;;;;;;10.13;2.58;;;15.50;72.50;;;;;;5040400;28;20021;-70
2022/11/09 11:11:22;;;;;;;5.60;1.83;;;15.40;72.10;;;;;;5037981;28;20537;-70
2022/11/09 11:13:50;;;;;;;9.05;2.28;;;15.40;72.20;;;;;;5042435;28;20395;-71
2022/11/09 11:16:27;;;;;;;5.38;1.50;;;15.40;72.30;;;;;;5041660;28;20377;-70
2022/11/09 11:18:54;;;;;;;7.72;2.45;;;15.40;72.40;;;;;;5039812;28;20444;-71
2022/11/09 11:21:22;;;;;;;6.05;2.20;;;15.40;72.20;;;;;;5038589;28;20023;-70
2022/11/09 11:24:13;;;;;;;4.97;1.77;;;15.30;72.10;;;;;;5042498;28;20074;-70
2022/11/09 11:26:52;;;;;;;6.15;2.00;;;15.40;72.30;;;;;;5037505;28;20035;-71
2022/11/09 11:29:18;;;;;;;6.40;2.05;;;15.30;72.20;;;;;;5041348;28;20479;-69
2022/11/09 11:31:44;;;;;;;8.02;2.17;;;15.30;71.80;;;;;;5044186;28;20021;-70
2022/11/09 11:34:14;;;;;;;8.45;2.53;;;15.20;71.70;;;;;;5043831;28;20021;-70
2022/11/09 11:36:54;;;;;;;8.75;1.85;;;15.20;72.00;;;;;;5040454;28;20018;-70
2022/11/09 11:39:50;;;;;;;7.25;1.90;;;15.30;71.90;;;;;;5036704;28;20300;-69
2022/11/09 11:42:43;;;;;;;7.97;2.20;;;15.50;71.90;;;;;;5042573;28;20036;-69
2022/11/09 11:45:43;;;;;;;9.50;2.60;;;15.50;70.50;;;;;;5036395;28;20472;-69
2022/11/09 11:48:26;;;;;;;6.43;1.80;;;15.40;70.50;;;;;;5026913;28;20041;-69
2022/11/09 11:51:01;;;;;;;8.00;1.92;;;15.40;70.60;;;;;;5044730;28;20032;-71
2022/11/09 11:53:32;;;;;;;6.65;2.08;;;15.90;70.20;;;;;;5037723;28;20033;-69
2022/11/09 11:56:19;;;;;;;8.37;2.47;;;15.90;68.80;;;;;;5036844;28;20057;-70
2022/11/09 11:58:53;;;;;;;8.25;2.45;;;15.80;69.40;;;;;;5034924;28;20371;-70
2022/11/09 12:01:40;;;;;;;7.35;2.03;;;15.70;69.80;;;;;;5035327;28;20031;-70
2022/11/09 12:04:05;;;;;;;6.78;2.10;;;15.70;70.20;;;;;;5037996;28;20634;-70
2022/11/09 12:06:55;;;;;;;5.22;2.05;;;15.60;70.00;;;;;;5040072;28;20021;-70
2022/11/09 12:09:44;;;;;;;7.72;1.90;;;15.60;70.10;;;;;;5040486;28;20123;-69
2022/11/09 12:12:12;;;;;;;6.55;2.08;;;15.60;70.00;;;;;;5035860;28;20025;-71
2022/11/09 12:14:56;;;;;;;7.60;2.28;;;15.60;70.00;;;;;;5035714;28;20533;-70
2022/11/09 12:17:40;;;;;;;6.00;1.90;;;15.60;70.10;;;;;;5041787;28;20041;-70
2022/11/09 12:20:28;;;;;;;6.40;2.08;;;15.80;69.90;;;;;;5035789;28;20506;-70
2022/11/09 12:23:05;;;;;;;4.55;1.77;;;16.60;68.60;;;;;;5042614;28;20031;-70
2022/11/09 12:25:41;;;;;;;7.30;2.08;;;17.10;66.50;;;;;;5040849;28;20021;-71
2022/11/09 12:28:33;;;;;;;7.97;2.22;;;17.70;65.70;;;;;;5035853;28;20052;-71
2022/11/09 12:31:05;;;;;;;;;;;17.70;64.20;;;;;;5043845;28;20021;-70
2022/11/09 12:33:40;;;;;;;5.20;1.80;;;17.10;65.30;;;;;;5043286;28;19924;-69
2022/11/09 12:36:23;;;;;;;5.45;1.85;;;16.80;66.30;;;;;;5035680;28;20104;-72
2022/11/09 12:39:02;;;;;;;6.68;2.20;;;16.50;66.80;;;;;;5042153;28;20025;-69
2022/11/09 12:41:33;;;;;;;8.23;2.13;;;16.40;67.50;;;;;;5039184;28;20021;-69
2022/11/09 12:44:13;;;;;;;5.43;1.60;;;16.20;67.60;;;;;;5043006;28;20040;-70
2022/11/09 12:46:47;;;;;;;9.32;2.70;;;16.20;68.00;;;;;;5040908;28;20025;-69
2022/11/09 12:49:29;;;;;;;3.92;1.50;;;16.10;67.90;;;;;;5042939;28;20721;-69
2022/11/09 12:51:55;;;;;;;5.22;1.58;;;16.00;68.30;;;;;;5039776;28;20044;-70
2022/11/09 12:54:22;;;;;;;3.63;1.63;;;15.90;68.20;;;;;;5043788;28;20037;-70
2022/11/09 12:57:08;;;;;;;4.43;1.27;;;15.80;68.50;;;;;;5040735;28;20087;-70
2022/11/09 12:59:54;;;;;;;10.48;2.38;;;16.00;68.50;;;;;;5034617;28;20036;-69
2022/11/09 13:02:55;;;;;;;6.90;1.80;;;16.20;68.20;;;;;;5036874;28;20068;-70